Time;durP1;ratioP1;P1;durP2;ratioP2;P2;SDS_P1;SDS_P2;PMS_P1;PMS_P2;Temp;Humidity;BMP_temperature;BMP_pressure;BME280_temperature;BME280_humidity;BME280_pressure;Samples;Min_cycle;Max_cycle;Signal;HPM_P1;HPM_P2
2023/04/12 00:01:03;;;;;;;;;;;17.40;65.00;;;;;;4993409;28;932;-72
2023/04/12 00:03:29;;;;;;;;;;;17.30;64.90;;;;;;4992392;28;794;-72
2023/04/12 00:05:54;;;;;;;;;;;17.30;65.00;;;;;;4990041;28;886;-72
2023/04/12 00:08:25;;;;;;;;;;;17.30;65.00;;;;;;4992681;28;1261;-72
2023/04/12 00:10:51;;;;;;;;;;;17.40;65.00;;;;;;4991451;28;844;-72
2023/04/12 00:13:16;;;;;;;;;;;17.30;65.00;;;;;;4992675;28;1985;-73
2023/04/12 00:15:42;;;;;;;;;;;17.30;65.00;;;;;;4992741;28;836;-73
2023/04/12 00:18:07;;;;;;;;;;;17.30;65.00;;;;;;4992327;28;1245;-73
2023/04/12 00:20:33;;;;;;;;;;;17.30;65.00;;;;;;4991815;28;817;-73
2023/04/12 00:22:58;;;;;;;;;;;17.30;65.00;;;;;;4992463;28;1697;-72
2023/04/12 00:25:23;;;;;;;;;;;17.30;65.00;;;;;;4991593;28;1319;-73
2023/04/12 00:27:51;;;;;;;;;;;17.30;65.00;;;;;;4991741;28;1606;-74
2023/04/12 00:30:16;;;;;;;;;;;17.30;65.00;;;;;;4992236;28;1498;-72
2023/04/12 00:32:42;;;;;;;;;;;17.30;65.00;;;;;;4990963;28;1964;-72
2023/04/12 00:35:07;;;;;;;;;;;17.30;65.00;;;;;;4991725;28;1387;-73
2023/04/12 00:37:35;;;;;;;;;;;17.30;65.10;;;;;;4987376;28;1433;-72
2023/04/12 00:40:01;;;;;;;;;;;17.30;65.10;;;;;;4992101;28;1585;-75
2023/04/12 00:42:26;;;;;;;;;;;17.30;65.10;;;;;;4992365;28;1347;-71
2023/04/12 00:44:52;;;;;;;;;;;17.30;65.10;;;;;;4991076;28;1665;-74
2023/04/12 00:47:17;;;;;;;;;;;17.30;65.10;;;;;;4992137;28;1338;-74
2023/04/12 00:49:43;;;;;;;;;;;17.30;65.10;;;;;;4992834;28;1348;-74
2023/04/12 00:52:09;;;;;;;;;;;17.30;65.10;;;;;;4990655;28;1306;-73
2023/04/12 00:54:35;;;;;;;;;;;17.30;65.20;;;;;;4990455;28;1981;-72
2023/04/12 00:57:01;;;;;;;;;;;17.30;65.10;;;;;;4991671;28;1367;-72
2023/04/12 00:59:26;;;;;;;;;;;17.30;65.10;;;;;;4991673;28;1445;-72
2023/04/12 01:01:54;;;;;;;;;;;17.30;65.10;;;;;;4992249;28;1431;-72
2023/04/12 01:04:21;;;;;;;;;;;17.30;65.20;;;;;;4991383;28;932;-71
2023/04/12 01:07:06;;;;;;;;;;;17.30;65.20;;;;;;4993356;28;824;-71
2023/04/12 01:09:51;;;;;;;;;;;17.30;65.20;;;;;;4992142;28;952;-72
2023/04/12 01:12:34;;;;;;;;;;;17.30;65.20;;;;;;4956492;28;1098;-71
2023/04/12 01:15:03;;;;;;;;;;;17.30;65.20;;;;;;4989894;28;848;-71
2023/04/12 01:17:30;;;;;;;;;;;17.30;65.20;;;;;;4990360;28;1260;-71
2023/04/12 01:19:56;;;;;;;;;;;17.30;65.20;;;;;;4990149;28;844;-71
2023/04/12 01:22:28;;;;;;;;;;;17.30;65.20;;;;;;4991665;28;884;-71
2023/04/12 01:25:11;;;;;;;;;;;17.30;65.20;;;;;;4990026;28;1381;-71
2023/04/12 01:27:39;;;;;;;;;;;17.30;65.20;;;;;;4990166;28;1352;-71
2023/04/12 01:30:06;;;;;;;;;;;17.30;65.20;;;;;;4991705;28;891;-72
2023/04/12 01:32:31;;;;;;;;;;;17.30;65.20;;;;;;4988773;28;1902;-71
2023/04/12 01:34:57;;;;;;;;;;;17.30;65.20;;;;;;4990343;28;952;-71
2023/04/12 01:37:22;;;;;;;;;;;17.30;65.20;;;;;;4991132;28;1480;-71
2023/04/12 01:39:48;;;;;;;;;;;17.30;65.10;;;;;;4989866;28;873;-73
2023/04/12 01:42:17;;;;;;;;;;;17.30;65.10;;;;;;4989498;28;1081;-74
2023/04/12 01:44:43;;;;;;;;;;;17.30;65.10;;;;;;4991108;28;1097;-74
2023/04/12 01:47:08;;;;;;;;;;;17.30;65.10;;;;;;4989718;28;1258;-72
2023/04/12 01:49:35;;;;;;;;;;;17.30;65.10;;;;;;4990749;28;1374;-72
2023/04/12 01:52:01;;;;;;;;;;;17.30;65.10;;;;;;4989175;28;883;-72
2023/04/12 01:54:29;;;;;;;;;;;17.30;65.00;;;;;;4990264;28;1907;-72
2023/04/12 01:56:58;;;;;;;;;;;17.30;65.00;;;;;;4989865;28;835;-72
2023/04/12 01:59:42;;;;;;;;;;;17.30;65.00;;;;;;4988856;28;1317;-72
2023/04/12 02:02:08;;;;;;;;;;;17.40;65.10;;;;;;4989683;28;1671;-72
2023/04/12 02:04:33;;;;;;;;;;;17.40;65.10;;;;;;4989529;28;818;-72
2023/04/12 02:06:59;;;;;;;;;;;17.40;65.00;;;;;;4989216;28;884;-73
2023/04/12 02:09:24;;;;;;;;;;;17.40;65.00;;;;;;4989052;28;1228;-72
2023/04/12 02:11:50;;;;;;;;;;;17.40;65.00;;;;;;4990851;28;880;-74
2023/04/12 02:14:16;;;;;;;;;;;17.40;65.00;;;;;;4990899;28;1942;-74
2023/04/12 02:16:43;;;;;;;;;;;17.40;65.00;;;;;;4989482;28;812;-74
2023/04/12 02:19:09;;;;;;;;;;;17.40;65.00;;;;;;4990578;28;1272;-73
2023/04/12 02:21:44;;;;;;;;;;;17.40;65.00;;;;;;4987892;28;817;-73
2023/04/12 02:24:10;;;;;;;;;;;17.40;65.00;;;;;;4988407;28;838;-69
2023/04/12 02:26:36;;;;;;;;;;;17.40;65.00;;;;;;4989247;28;808;-69
2023/04/12 02:29:02;;;;;;;;;;;17.40;65.00;;;;;;4990443;28;1257;-69
2023/04/12 02:31:30;;;;;;;;;;;17.40;65.00;;;;;;4988144;28;1043;-69
2023/04/12 02:33:55;;;;;;;;;;;17.40;65.00;;;;;;4990305;28;1914;-69
2023/04/12 02:36:21;;;;;;;;;;;17.40;65.00;;;;;;4990821;28;855;-72
2023/04/12 02:38:49;;;;;;;;;;;17.40;65.00;;;;;;4990112;28;1388;-71
2023/04/12 02:41:18;;;;;;;;;;;17.40;65.00;;;;;;4988572;28;1463;-73
2023/04/12 02:43:44;;;;;;;;;;;17.40;64.90;;;;;;4989287;28;942;-72
2023/04/12 02:46:12;;;;;;;;;;;17.40;64.90;;;;;;4991197;28;814;-72
2023/04/12 02:48:37;;;;;;;;;;;17.40;64.90;;;;;;4991521;28;1321;-73
2023/04/12 02:51:03;;;;;;;;;;;17.40;65.70;;;;;;4991038;28;1262;-73
2023/04/12 02:53:29;;;;;;;;;;;17.40;64.90;;;;;;4991680;28;1902;-73
2023/04/12 02:55:56;;;;;;;;;;;17.40;64.90;;;;;;4989868;28;835;-72
2023/04/12 02:58:23;;;;;;;;;;;17.40;64.90;;;;;;4990574;28;1363;-73
2023/04/12 03:00:48;;;;;;;;;;;17.40;64.90;;;;;;4990638;28;902;-72
2023/04/12 03:03:16;;;;;;;;;;;17.40;64.90;;;;;;4990776;28;811;-73
2023/04/12 03:05:46;;;;;;;;;;;17.40;64.90;;;;;;4986261;28;927;-73
2023/04/12 03:08:12;;;;;;;;;;;17.40;64.90;;;;;;4987777;28;1299;-72
2023/04/12 03:10:37;;;;;;;;;;;17.40;64.90;;;;;;4988528;28;1244;-73
2023/04/12 03:13:03;;;;;;;;;;;17.40;64.90;;;;;;4990561;28;1910;-72
2023/04/12 03:15:29;;;;;;;;;;;17.40;64.90;;;;;;4990528;28;903;-72
2023/04/12 03:17:55;;;;;;;;;;;17.40;64.90;;;;;;4989156;28;1267;-72
2023/04/12 03:20:23;;;;;;;;;;;17.40;64.90;;;;;;4991510;28;874;-73
2023/04/12 03:22:48;;;;;;;;;;;17.40;65.70;;;;;;4988835;28;852;-74
2023/04/12 03:25:14;;;;;;;;;;;17.40;64.90;;;;;;4989980;28;1329;-72
2023/04/12 03:27:39;;;;;;;;;;;17.40;64.90;;;;;;4991638;28;1245;-73
2023/04/12 03:30:05;;;;;;;;;;;17.40;64.90;;;;;;4992466;28;880;-72
2023/04/12 03:32:31;;;;;;;;;;;17.40;64.90;;;;;;4992394;28;871;-73
2023/04/12 03:34:56;;;;;;;;;;;17.40;64.90;;;;;;4988980;28;1970;-72
2023/04/12 03:37:22;;;;;;;;;;;17.40;64.90;;;;;;4990068;28;1461;-71
2023/04/12 03:39:47;;;;;;;;;;;17.40;64.90;;;;;;4992497;28;911;-71
2023/04/12 03:42:13;;;;;;;;;;;17.40;64.90;;;;;;4993817;28;863;-71
2023/04/12 03:44:39;;;;;;;;;;;17.40;64.90;;;;;;4993677;28;836;-71
2023/04/12 03:47:05;;;;;;;;;;;17.40;64.90;;;;;;4993320;28;1366;-71
2023/04/12 03:49:31;;;;;;;;;;;17.40;64.90;;;;;;4970979;28;1734;-69
2023/04/12 03:51:57;;;;;;;;;;;17.40;64.90;;;;;;4991690;28;1866;-70
2023/04/12 03:54:23;;;;;;;;;;;17.40;64.90;;;;;;4993246;28;1936;-70
2023/04/12 03:56:48;;;;;;;;;;;17.40;64.90;;;;;;4999238;28;1212;-70
2023/04/12 03:59:14;;;;;;;;;;;17.40;64.90;;;;;;4992748;28;1256;-71
2023/04/12 04:01:40;;;;;;;;;;;17.40;64.90;;;;;;4993020;28;907;-69
2023/04/12 04:04:06;;;;;;;;;;;17.40;64.90;;;;;;4992633;28;852;-69
2023/04/12 04:06:33;;;;;;;;;;;17.40;64.90;;;;;;4992556;28;1601;-69
2023/04/12 04:08:58;;;;;;;;;;;17.40;64.90;;;;;;4992371;28;1229;-69
2023/04/12 04:11:24;;;;;;;;;;;17.40;64.90;;;;;;4992737;28;880;-69
2023/04/12 04:13:50;;;;;;;;;;;17.40;64.90;;;;;;4992530;28;1894;-69
2023/04/12 04:16:15;;;;;;;;;;;17.40;64.80;;;;;;4992821;28;917;-70
2023/04/12 04:18:41;;;;;;;;;;;17.40;64.70;;;;;;4990859;28;1264;-70
2023/04/12 04:21:06;;;;;;;;;;;17.50;64.70;;;;;;4992923;28;990;-70
2023/04/12 04:23:37;;;;;;;;;;;17.50;64.60;;;;;;4992508;28;863;-70
2023/04/12 04:26:08;;;;;;;;;;;17.50;64.50;;;;;;4992541;28;910;-70
2023/04/12 04:28:36;;;;;;;;;;;17.60;64.40;;;;;;4989403;28;1664;-70
2023/04/12 04:31:05;;;;;;;;;;;17.60;64.30;;;;;;4992975;28;768;-71
2023/04/12 04:33:31;;;;;;;;;;;17.60;64.20;;;;;;4991218;28;1997;-73
2023/04/12 04:35:56;;;;;;;;;;;17.60;64.10;;;;;;4992132;28;888;-74
2023/04/12 04:38:25;;;;;;;;;;;17.60;64.00;;;;;;4991193;28;1535;-73
2023/04/12 04:40:54;;;;;;;;;;;17.70;64.00;;;;;;4993059;28;844;-73
2023/04/12 04:43:20;;;;;;;;;;;17.70;63.90;;;;;;4994230;28;902;-72
2023/04/12 04:45:50;;;;;;;;;;;17.70;63.80;;;;;;4993668;28;865;-72
2023/04/12 04:48:17;;;;;;;;;;;17.70;64.50;;;;;;4992180;28;1327;-73
2023/04/12 04:50:43;;;;;;;;;;;17.70;63.70;;;;;;4991547;28;879;-73
2023/04/12 04:53:08;;;;;;;;;;;17.70;63.60;;;;;;4992265;28;1969;-73
2023/04/12 04:55:34;;;;;;;;;;;17.80;63.60;;;;;;4988982;28;1145;-73
2023/04/12 04:57:59;;;;;;;;;;;17.80;63.60;;;;;;4991066;28;1727;-73
2023/04/12 05:00:24;;;;;;;;;;;17.80;63.50;;;;;;4992674;28;1446;-71
2023/04/12 05:02:50;;;;;;;;;;;17.80;63.50;;;;;;4991166;28;1065;-72
2023/04/12 05:05:15;;;;;;;;;;;17.80;63.40;;;;;;4991861;28;935;-73
2023/04/12 05:07:44;;;;;;;;;;;17.80;63.40;;;;;;4992017;28;1321;-74
2023/04/12 05:10:09;;;;;;;;;;;17.80;63.30;;;;;;4992122;28;840;-73
2023/04/12 05:12:38;;;;;;;;;;;17.80;63.30;;;;;;4991963;28;998;-73
2023/04/12 05:15:03;;;;;;;;;;;17.80;63.30;;;;;;4990639;28;1989;-73
2023/04/12 05:17:29;;;;;;;;;;;17.80;63.20;;;;;;4991608;28;1334;-74
2023/04/12 05:19:54;;;;;;;;;;;17.80;63.30;;;;;;4992089;28;915;-74
2023/04/12 05:22:20;;;;;;;;;;;17.80;63.20;;;;;;4992120;28;887;-74
2023/04/12 05:24:50;;;;;;;;;;;17.80;63.30;;;;;;4990820;28;914;-74
2023/04/12 05:27:15;;;;;;;;;;;17.80;63.20;;;;;;4991247;28;1216;-73
2023/04/12 05:29:41;;;;;;;;;;;17.80;63.20;;;;;;4991768;28;968;-74
2023/04/12 05:32:07;;;;;;;;;;;17.80;63.20;;;;;;4991774;28;835;-74
2023/04/12 05:34:32;;;;;;;;;;;17.80;63.20;;;;;;4991635;28;1976;-75
2023/04/12 05:36:58;;;;;;;;;;;17.80;63.20;;;;;;4990064;28;1480;-74
2023/04/12 05:39:24;;;;;;;;;;;17.80;63.20;;;;;;4991484;28;1320;-74
2023/04/12 05:41:50;;;;;;;;;;;17.80;63.20;;;;;;4991828;28;867;-74
2023/04/12 05:44:15;;;;;;;;;;;17.80;63.20;;;;;;4991527;28;1233;-74
2023/04/12 05:46:41;;;;;;;;;;;17.80;63.20;;;;;;4990854;28;792;-74
2023/04/12 05:49:07;;;;;;;;;;;17.80;63.30;;;;;;4991861;28;1299;-75
2023/04/12 05:51:32;;;;;;;;;;;17.80;63.30;;;;;;4991383;28;816;-73
2023/04/12 05:53:58;;;;;;;;;;;17.80;63.30;;;;;;4988283;28;1906;-75
2023/04/12 05:56:23;;;;;;;;;;;17.80;63.30;;;;;;4990687;28;1452;-72
2023/04/12 05:58:50;;;;;;;;;;;17.80;63.30;;;;;;4990857;28;1523;-70
2023/04/12 06:01:18;;;;;;;;;;;17.80;63.30;;;;;;4990464;28;839;-71
2023/04/12 06:03:44;;;;;;;;;;;17.80;63.40;;;;;;4991040;28;1233;-71
2023/04/12 06:06:10;;;;;;;;;;;17.80;63.40;;;;;;4991213;28;860;-70
2023/04/12 06:08:36;;;;;;;;;;;17.80;63.40;;;;;;4989217;28;1245;-71
2023/04/12 06:11:03;;;;;;;;;;;17.80;63.40;;;;;;4989958;28;887;-71
2023/04/12 06:13:28;;;;;;;;;;;17.80;63.40;;;;;;4990174;28;1906;-71
2023/04/12 06:15:53;;;;;;;;;;;17.80;63.50;;;;;;4990866;28;879;-70
2023/04/12 06:18:19;;;;;;;;;;;17.80;63.50;;;;;;4990607;28;1328;-72
2023/04/12 06:20:45;;;;;;;;;;;17.80;63.50;;;;;;4991630;28;883;-70
2023/04/12 06:23:10;;;;;;;;;;;17.80;63.50;;;;;;4990928;28;873;-70
2023/04/12 06:25:36;;;;;;;;;;;17.80;63.50;;;;;;4991490;28;1061;-72
2023/04/12 06:28:01;;;;;;;;;;;17.80;63.50;;;;;;4990589;28;1322;-70
2023/04/12 06:30:27;;;;;;;;;;;17.80;63.50;;;;;;4990937;28;876;-70
2023/04/12 06:32:52;;;;;;;;;;;17.80;63.60;;;;;;4991321;28;1918;-70
2023/04/12 06:35:19;;;;;;;;;;;17.80;63.60;;;;;;4990363;28;912;-71
2023/04/12 06:37:44;;;;;;;;;;;17.80;63.60;;;;;;4989590;28;1413;-72
2023/04/12 06:40:11;;;;;;;;;;;17.80;63.60;;;;;;4990608;28;865;-70
2023/04/12 06:42:37;;;;;;;;;;;17.80;63.60;;;;;;4990847;28;863;-72
2023/04/12 06:45:02;;;;;;;;;;;17.80;63.70;;;;;;4990587;28;1029;-71
2023/04/12 06:47:28;;;;;;;;;;;17.70;63.60;;;;;;4990323;28;1277;-71
2023/04/12 06:49:55;;;;;;;;;;;17.70;63.60;;;;;;4990830;28;1232;-71
2023/04/12 06:52:25;;;;;;;;;;;17.70;63.60;;;;;;4989902;28;836;-71
2023/04/12 06:54:51;;;;;;;;;;;17.70;63.60;;;;;;4990684;28;1987;-71
2023/04/12 06:57:16;;;;;;;;;;;17.70;63.60;;;;;;4989006;28;1291;-70
2023/04/12 06:59:41;;;;;;;;;;;17.80;64.50;;;;;;4990825;28;848;-73
2023/04/12 07:02:07;;;;;;;;;;;17.70;63.70;;;;;;4990766;28;847;-73
2023/04/12 07:04:32;;;;;;;;;;;17.70;63.70;;;;;;4990491;28;919;-74
2023/04/12 07:06:58;;;;;;;;;;;17.80;63.80;;;;;;4990386;28;938;-74
2023/04/12 07:09:23;;;;;;;;;;;17.70;63.70;;;;;;4990235;28;1176;-74
2023/04/12 07:11:49;;;;;;;;;;;17.70;63.80;;;;;;4990558;28;804;-74
2023/04/12 07:14:14;;;;;;;;;;;17.70;63.80;;;;;;4993477;28;1902;-73
2023/04/12 07:16:41;;;;;;;;;;;17.70;63.80;;;;;;4990257;28;1380;-73
2023/04/12 07:19:07;;;;;;;;;;;17.70;63.80;;;;;;4993257;28;1397;-73
2023/04/12 07:21:32;;;;;;;;;;;17.70;63.80;;;;;;4994263;28;828;-70
2023/04/12 07:23:58;;;;;;;;;;;17.70;63.80;;;;;;4993511;28;2574;-71
2023/04/12 07:26:23;;;;;;;;;;;17.70;63.80;;;;;;4992684;28;1368;-70
2023/04/12 07:28:49;;;;;;;;;;;17.70;63.80;;;;;;4993497;28;1256;-70
2023/04/12 07:31:15;;;;;;;;;;;17.70;63.80;;;;;;4993977;28;820;-70
2023/04/12 07:33:40;;;;;;;;;;;17.70;63.80;;;;;;4993849;28;1899;-72
2023/04/12 07:36:06;;;;;;;;;;;17.70;63.80;;;;;;4993684;28;935;-73
2023/04/12 07:38:31;;;;;;;;;;;17.70;63.80;;;;;;4992151;28;1380;-73
2023/04/12 07:40:56;;;;;;;;;;;17.70;63.80;;;;;;4993509;28;818;-73
2023/04/12 07:43:22;;;;;;;;;;;17.70;63.90;;;;;;4993579;28;901;-74
2023/04/12 07:45:48;;;;;;;;;;;17.70;63.90;;;;;;4993272;28;755;-73
2023/04/12 07:48:13;;;;;;;;;;;17.70;63.90;;;;;;4993524;28;1331;-73
2023/04/12 07:50:40;;;;;;;;;;;17.70;63.90;;;;;;4993467;28;1585;-73
2023/04/12 07:53:18;;;;;;;;;;;17.70;63.90;;;;;;4992906;28;2100;-73
2023/04/12 07:55:43;;;;;;;;;;;17.70;63.90;;;;;;4991674;28;1341;-72
2023/04/12 07:58:09;;;;;;;;;;;17.70;63.90;;;;;;4992686;28;1332;-72
2023/04/12 08:00:34;;;;;;;;;;;17.70;63.90;;;;;;4993249;28;1348;-72
2023/04/12 08:03:00;;;;;;;;;;;17.70;64.00;;;;;;5004115;28;871;-73
2023/04/12 08:05:25;;;;;;;;;;;17.70;63.90;;;;;;4992937;28;1003;-74
2023/04/12 08:07:51;;;;;;;;;;;17.70;64.00;;;;;;4992041;28;1237;-71
2023/04/12 08:10:16;;;;;;;;;;;17.70;64.00;;;;;;4992809;28;891;-72
2023/04/12 08:12:41;;;;;;;;;;;17.70;64.00;;;;;;4992998;28;1113;-72
2023/04/12 08:15:08;;;;;;;;;;;17.70;64.00;;;;;;4992716;28;1926;-72
2023/04/12 08:17:33;;;;;;;;;;;17.70;64.00;;;;;;4991622;28;1281;-72
2023/04/12 08:19:59;;;;;;;;;;;17.70;64.00;;;;;;4993462;28;856;-71
2023/04/12 08:22:25;;;;;;;;;;;17.70;64.00;;;;;;4990578;28;891;-72
2023/04/12 08:24:50;;;;;;;;;;;17.70;64.00;;;;;;4992922;28;883;-71
2023/04/12 08:27:16;;;;;;;;;;;17.70;64.10;;;;;;4992241;28;1358;-71
2023/04/12 08:29:41;;;;;;;;;;;17.70;64.10;;;;;;4992655;28;1100;-74
2023/04/12 08:32:08;;;;;;;;;;;17.70;64.10;;;;;;4992584;28;1086;-74
2023/04/12 08:34:34;;;;;;;;;;;17.70;64.10;;;;;;4992220;28;1914;-74
2023/04/12 08:36:59;;;;;;;;;;;17.70;64.10;;;;;;4990889;28;2208;-72
2023/04/12 08:39:25;;;;;;;;;;;17.70;64.10;;;;;;4990189;28;1471;-74
2023/04/12 08:41:51;;;;;;;;;;;17.70;64.10;;;;;;4991607;28;1542;-72
2023/04/12 08:44:17;;;;;;;;;;;17.70;64.20;;;;;;4990905;28;912;-72
2023/04/12 08:46:42;;;;;;;;;;;17.70;64.10;;;;;;4989922;28;947;-72
2023/04/12 08:49:08;;;;;;;;;;;17.70;64.10;;;;;;4991441;28;1289;-74
2023/04/12 08:51:35;;;;;;;;;;;17.70;64.10;;;;;;4990940;28;1423;-73
2023/04/12 08:54:01;;;;;;;;;;;17.70;64.20;;;;;;4990833;28;1969;-72
2023/04/12 08:56:26;;;;;;;;;;;17.70;64.10;;;;;;4970073;28;2034;-73
2023/04/12 08:58:52;;;;;;;;;;;17.70;64.10;;;;;;4987240;28;1353;-73
2023/04/12 09:01:19;;;;;;;;;;;17.70;64.20;;;;;;4992315;28;1407;-73
2023/04/12 09:03:45;;;;;;;;;;;17.70;64.10;;;;;;4990561;28;944;-73
2023/04/12 09:06:10;;;;;;;;;;;17.70;64.20;;;;;;4974182;28;1335;-73
2023/04/12 09:08:36;;;;;;;;;;;17.70;64.20;;;;;;4989995;28;1272;-73
2023/04/12 09:11:04;;;;;;;;;;;17.70;64.10;;;;;;4991336;28;1309;-73
2023/04/12 09:13:33;;;;;;;;;;;17.70;64.20;;;;;;4990322;28;1959;-73
2023/04/12 09:15:59;;;;;;;;;;;17.70;64.20;;;;;;4991910;28;923;-73
2023/04/12 09:18:26;;;;;;;;;;;17.70;64.10;;;;;;4991315;28;1363;-73
2023/04/12 09:21:04;;;;;;;;;;;17.70;64.10;;;;;;4990481;28;887;-73
2023/04/12 09:23:30;;;;;;;;;;;17.70;64.10;;;;;;4972501;28;1269;-73
2023/04/12 09:25:55;;;;;;;;;;;17.70;64.10;;;;;;4991238;28;943;-73
2023/04/12 09:28:21;;;;;;;;;;;17.70;64.10;;;;;;4991072;28;1252;-73
2023/04/12 09:30:50;;;;;;;;;;;17.70;64.10;;;;;;4989722;28;868;-74
2023/04/12 09:33:19;;;;;;;;;;;17.70;64.10;;;;;;4990637;28;1902;-74
2023/04/12 09:35:45;;;;;;;;;;;17.70;64.10;;;;;;4988394;28;859;-72
2023/04/12 09:38:10;;;;;;;;;;;17.70;64.10;;;;;;4989367;28;1483;-73
2023/04/12 09:40:36;;;;;;;;;;;17.70;64.10;;;;;;4972673;28;1346;-73
2023/04/12 09:43:02;;;;;;;;;;;17.70;64.10;;;;;;4989815;28;861;-74
2023/04/12 09:45:28;;;;;;;;;;;17.70;64.00;;;;;;4989226;28;880;-72
2023/04/12 09:47:54;;;;;;;;;;;17.70;64.10;;;;;;4990499;28;1416;-72
2023/04/12 09:50:21;;;;;;;;;;;17.70;64.10;;;;;;4991180;28;1337;-71
2023/04/12 09:52:47;;;;;;;;;;;17.70;64.00;;;;;;4988671;28;1306;-72
2023/04/12 09:55:12;;;;;;;;;;;17.70;64.00;;;;;;4989336;28;1930;-71
2023/04/12 09:57:41;;;;;;;;;;;17.70;64.00;;;;;;4988178;28;1495;-74
2023/04/12 10:00:12;;;;;;;;;;;17.70;64.10;;;;;;4989626;28;1301;-74
2023/04/12 10:02:40;;;;;;;;;;;17.70;64.00;;;;;;4990069;28;1264;-74
2023/04/12 10:05:05;;;;;;;;;;;17.70;64.00;;;;;;4991208;28;1502;-74
2023/04/12 10:07:31;;;;;;;;;;;17.70;64.10;;;;;;4991272;28;1649;-73
2023/04/12 10:09:57;;;;;;;;;;;17.70;64.20;;;;;;4992093;28;1380;-73
2023/04/12 10:12:22;;;;;;;;;;;17.70;64.10;;;;;;4989451;28;1035;-73
2023/04/12 10:14:48;;;;;;;;;;;17.70;64.10;;;;;;4991298;28;1996;-75
2023/04/12 10:17:13;;;;;;;;;;;17.70;64.10;;;;;;4992200;28;1431;-73
2023/04/12 10:19:39;;;;;;;;;;;17.70;64.10;;;;;;4989205;28;1392;-73
2023/04/12 10:22:04;;;;;;;;;;;17.70;64.10;;;;;;4985727;28;1368;-74
2023/04/12 10:24:30;;;;;;;;;;;17.70;64.10;;;;;;4990180;28;1715;-73
2023/04/12 10:26:59;;;;;;;;;;;17.70;64.10;;;;;;4989924;28;1412;-72
2023/04/12 10:29:24;;;;;;;;;;;17.70;64.10;;;;;;4988516;28;1630;-72
2023/04/12 10:31:50;;;;;;;;;;;17.70;64.20;;;;;;4990192;28;1566;-73
2023/04/12 10:34:16;;;;;;;;;;;17.60;64.10;;;;;;4987444;28;1973;-73
2023/04/12 10:36:54;;;;;;;;;;;17.70;64.20;;;;;;4987964;28;1351;-72
2023/04/12 10:39:39;;;;;;;;;;;17.70;64.20;;;;;;4990919;28;1347;-71
2023/04/12 10:42:23;;;;;;;;;;;17.70;63.20;;;;;;4990100;28;881;-70
2023/04/12 10:44:49;;;;;;;;;;;17.70;61.30;;;;;;4991068;28;899;-72
2023/04/12 10:47:15;;;;;;;;;;;17.70;59.50;;;;;;4989278;28;1259;-72
2023/04/12 10:49:40;;;;;;;;;;;17.70;57.20;;;;;;4996138;28;955;-72
2023/04/12 10:52:12;;;;;;;;;;;17.60;56.60;;;;;;4994304;28;1553;-71
2023/04/12 10:54:38;;;;;;;;;;;17.60;55.50;;;;;;4995387;28;1894;-71
2023/04/12 10:57:03;;;;;;;;;;;17.60;55.70;;;;;;4996131;28;871;-72
2023/04/12 10:59:47;;;;;;;;;;;17.60;54.20;;;;;;4996326;28;1371;-72
2023/04/12 11:02:13;;;;;;;;;;;17.60;54.50;;;;;;4996899;28;943;-72
2023/04/12 11:04:58;;;;;;;;;;;17.60;54.40;;;;;;4995595;28;825;-73
2023/04/12 11:07:24;;;;;;;;;;;17.60;52.60;;;;;;4992577;28;1615;-73
2023/04/12 11:09:49;;;;;;;;;;;17.60;53.10;;;;;;4973238;28;1596;-73
2023/04/12 11:12:15;;;;;;;;;;;17.60;52.70;;;;;;4991692;28;1424;-72
2023/04/12 11:14:47;;;;;;;;;;;17.60;52.50;;;;;;4993549;28;1890;-71
2023/04/12 11:17:13;;;;;;;;;;;17.60;50.80;;;;;;4994098;28;1353;-71
2023/04/12 11:19:38;;;;;;;;;;;17.50;50.70;;;;;;4992400;28;1465;-71
2023/04/12 11:22:05;;;;;;;;;;;17.60;50.70;;;;;;4990541;28;1567;-71
2023/04/12 11:24:30;;;;;;;;;;;17.50;50.30;;;;;;4991991;28;1242;-71
2023/04/12 11:26:56;;;;;;;;;;;17.60;51.00;;;;;;4993071;28;1287;-71
2023/04/12 11:29:25;;;;;;;;;;;17.60;50.30;;;;;;4991796;28;1370;-71
2023/04/12 11:31:50;;;;;;;;;;;17.50;50.90;;;;;;4993826;28;1298;-71
2023/04/12 11:34:16;;;;;;;;;;;17.50;50.50;;;;;;4993176;28;1972;-70
2023/04/12 11:36:43;;;;;;;;;;;17.50;50.60;;;;;;4991761;28;1374;-69
2023/04/12 11:39:09;;;;;;;;;;;17.50;51.40;;;;;;4992607;28;1338;-71
2023/04/12 11:41:35;;;;;;;;;;;17.50;50.30;;;;;;4993141;28;1404;-73
2023/04/12 11:44:00;;;;;;;;;;;17.60;51.10;;;;;;4991299;28;1258;-72
2023/04/12 11:46:27;;;;;;;;;;;17.50;51.10;;;;;;4993135;28;1266;-71
2023/04/12 11:48:52;;;;;;;;;;;17.60;50.20;;;;;;4990495;28;1289;-70
2023/04/12 11:51:18;;;;;;;;;;;17.50;49.00;;;;;;4992798;28;1450;-72
2023/04/12 11:53:44;;;;;;;;;;;17.50;49.40;;;;;;4991051;28;2083;-72
2023/04/12 11:56:09;;;;;;;;;;;17.50;48.50;;;;;;4989932;28;1301;-71
2023/04/12 11:58:35;;;;;;;;;;;17.50;48.30;;;;;;4991808;28;1346;-72
2023/04/12 12:01:01;;;;;;;;;;;17.50;48.50;;;;;;4992541;28;1308;-72
2023/04/12 12:03:26;;;;;;;;;;;17.50;48.20;;;;;;4991390;28;1301;-73
2023/04/12 12:05:52;;;;;;;;;;;17.50;48.80;;;;;;4991716;28;1398;-70
2023/04/12 12:08:17;;;;;;;;;;;17.50;48.40;;;;;;4990993;28;1269;-71
2023/04/12 12:10:43;;;;;;;;;;;17.50;49.00;;;;;;4991907;28;881;-73
2023/04/12 12:13:11;;;;;;;;;;;17.50;48.30;;;;;;4991406;28;1898;-72
2023/04/12 12:15:37;;;;;;;;;;;17.50;48.90;;;;;;4989904;28;1821;-72
2023/04/12 12:18:02;;;;;;;;;;;17.50;49.80;;;;;;4992277;28;1356;-72
2023/04/12 12:20:28;;;;;;;;;;;17.50;51.00;;;;;;4993083;28;825;-73
2023/04/12 12:22:53;;;;;;;;;;;17.40;51.50;;;;;;4994294;28;777;-75
2023/04/12 12:25:19;;;;;;;;;;;17.50;52.20;;;;;;4992202;28;1562;-74
2023/04/12 12:27:47;;;;;;;;;;;17.40;52.60;;;;;;4992547;28;1354;-74
2023/04/12 12:30:15;;;;;;;;;;;17.50;53.00;;;;;;4992808;28;838;-73
2023/04/12 12:32:41;;;;;;;;;;;17.40;53.70;;;;;;4992799;28;894;-73
2023/04/12 12:35:08;;;;;;;;;;;17.40;54.10;;;;;;4991680;28;1974;-73
2023/04/12 12:37:33;;;;;;;;;;;17.40;54.10;;;;;;4972943;28;1284;-72
2023/04/12 12:40:20;;;;;;;;;;;17.40;54.20;;;;;;4992097;28;834;-73
2023/04/12 12:42:49;;;;;;;;;;;17.40;54.40;;;;;;4989966;28;1666;-73
2023/04/12 12:45:20;;;;;;;;;;;17.40;54.80;;;;;;4990936;28;887;-72
2023/04/12 12:47:50;;;;;;;;;;;17.40;55.10;;;;;;4989757;28;1376;-73
2023/04/12 12:50:16;;;;;;;;;;;17.40;55.80;;;;;;4992084;28;1293;-72
2023/04/12 12:52:43;;;;;;;;;;;17.40;55.50;;;;;;4991117;28;813;-72
2023/04/12 12:55:08;;;;;;;;;;;17.40;55.20;;;;;;4992405;28;1934;-73
2023/04/12 12:57:34;;;;;;;;;;;17.40;55.80;;;;;;4991340;28;1392;-73
2023/04/12 13:00:00;;;;;;;;;;;17.40;56.00;;;;;;4992738;28;839;-72
2023/04/12 13:02:25;;;;;;;;;;;17.40;56.10;;;;;;4992239;28;863;-72
2023/04/12 13:04:51;;;;;;;;;;;17.40;56.20;;;;;;4992210;28;1014;-72
2023/04/12 13:07:16;;;;;;;;;;;17.40;56.40;;;;;;4991535;28;1287;-73
2023/04/12 13:09:42;;;;;;;;;;;17.40;56.50;;;;;;4992035;28;915;-72
2023/04/12 13:12:07;;;;;;;;;;;17.40;57.30;;;;;;4990351;28;1178;-72
2023/04/12 13:14:33;;;;;;;;;;;17.40;56.90;;;;;;4990462;28;1898;-72
2023/04/12 13:16:59;;;;;;;;;;;17.40;57.00;;;;;;4992147;28;1077;-72
2023/04/12 13:19:25;;;;;;;;;;;17.40;57.10;;;;;;4991899;28;1447;-72
2023/04/12 13:21:50;;;;;;;;;;;17.40;57.20;;;;;;4991958;28;823;-72
2023/04/12 13:24:16;;;;;;;;;;;17.40;57.40;;;;;;4991662;28;850;-72
2023/04/12 13:26:42;;;;;;;;;;;17.40;57.50;;;;;;4991493;28;880;-72
2023/04/12 13:29:07;;;;;;;;;;;17.40;57.60;;;;;;4991436;28;1260;-72
2023/04/12 13:31:33;;;;;;;;;;;17.40;57.60;;;;;;4989881;28;1054;-72
2023/04/12 13:33:59;;;;;;;;;;;17.40;57.70;;;;;;4991618;28;1914;-72
2023/04/12 13:36:26;;;;;;;;;;;17.40;57.80;;;;;;4991359;28;1037;-71
2023/04/12 13:38:51;;;;;;;;;;;17.40;57.90;;;;;;4990973;28;1314;-72
2023/04/12 13:41:17;;;;;;;;;;;17.40;58.00;;;;;;4991110;28;1053;-71
2023/04/12 13:43:43;;;;;;;;;;;17.40;58.10;;;;;;4991493;28;865;-71
2023/04/12 13:46:08;;;;;;;;;;;17.40;58.20;;;;;;4991701;28;875;-71
2023/04/12 13:48:34;;;;;;;;;;;17.40;58.20;;;;;;4991438;28;1200;-72
2023/04/12 13:50:59;;;;;;;;;;;17.40;58.30;;;;;;4994115;28;842;-72
2023/04/12 13:53:26;;;;;;;;;;;17.40;58.40;;;;;;4991443;28;1902;-71
2023/04/12 13:55:51;;;;;;;;;;;17.40;58.50;;;;;;4991367;28;844;-71
2023/04/12 13:58:17;;;;;;;;;;;17.40;58.50;;;;;;4990934;28;1352;-71
2023/04/12 14:00:43;;;;;;;;;;;17.40;58.60;;;;;;4992449;28;798;-71
2023/04/12 14:03:08;;;;;;;;;;;17.40;58.60;;;;;;4993337;28;876;-72
2023/04/12 14:05:34;;;;;;;;;;;17.30;58.70;;;;;;4989929;28;876;-72
2023/04/12 14:07:59;;;;;;;;;;;17.40;58.80;;;;;;4992763;28;1255;-73
2023/04/12 14:10:25;;;;;;;;;;;17.30;58.80;;;;;;4991288;28;1445;-72
2023/04/12 14:12:50;;;;;;;;;;;17.30;58.80;;;;;;4991503;28;863;-72
2023/04/12 14:15:16;;;;;;;;;;;17.30;58.90;;;;;;4990233;28;1954;-71
2023/04/12 14:17:42;;;;;;;;;;;17.30;58.90;;;;;;4991189;28;1225;-72
2023/04/12 14:20:09;;;;;;;;;;;17.30;59.00;;;;;;4991699;28;817;-73
2023/04/12 14:22:35;;;;;;;;;;;17.30;59.10;;;;;;4971629;28;1347;-72
2023/04/12 14:25:01;;;;;;;;;;;17.30;59.10;;;;;;4988325;28;2204;-71
2023/04/12 14:27:26;;;;;;;;;;;17.30;59.20;;;;;;4990234;28;1350;-72
2023/04/12 14:29:52;;;;;;;;;;;17.30;59.20;;;;;;4990659;28;1231;-72
2023/04/12 14:32:17;;;;;;;;;;;17.30;59.80;;;;;;4990838;28;860;-72